createdAt,value
2022-09-17T04:00:28.746Z,99.99
2022-09-17T04:05:28.577Z,99.99
2022-09-17T04:10:28.526Z,99.99
2022-09-17T04:15:28.467Z,99.99
2022-09-17T04:20:28.537Z,99.99
2022-09-17T04:25:28.412Z,99.99
2022-09-17T04:30:28.309Z,99.99
2022-09-17T04:35:28.253Z,99.99
2022-09-17T04:40:28.338Z,99.99
2022-09-17T04:45:28.143Z,99.99
2022-09-17T04:50:28.088Z,99.99
2022-09-17T04:55:28.031Z,99.99
2022-09-17T05:00:28.094Z,99.99
2022-09-17T05:05:27.924Z,99.99
2022-09-17T05:10:27.874Z,99.99
2022-09-17T05:15:27.815Z,99.99
2022-09-17T05:20:28.150Z,99.99
2022-09-17T05:25:27.699Z,99.99
2022-09-17T05:30:27.653Z,99.99
2022-09-17T05:35:27.611Z,99.99
2022-09-17T05:40:27.686Z,99.99
2022-09-17T05:45:27.491Z,99.99
2022-09-17T05:50:27.448Z,99.99
2022-09-17T05:55:27.382Z,99.99
2022-09-17T06:00:27.509Z,99.99
2022-09-17T06:05:27.273Z,99.99
2022-09-17T06:10:27.333Z,99.87
2022-09-17T06:15:27.162Z,99.99
2022-09-17T06:20:27.312Z,99.99
2022-09-17T06:25:27.058Z,99.66
2022-09-17T06:30:27.051Z,99.46
2022-09-17T06:35:26.964Z,99.99
2022-09-17T06:40:27.155Z,99.99
2022-09-17T06:45:26.850Z,99.99
2022-09-17T06:50:26.805Z,99.99
2022-09-17T06:55:26.720Z,99.99
2022-09-17T07:00:26.801Z,99.99
2022-09-17T07:05:26.636Z,99.99
2022-09-17T07:10:26.566Z,99.99
2022-09-17T07:15:26.524Z,99.99
2022-09-17T07:20:26.597Z,99.99
2022-09-17T07:25:26.404Z,99.99
2022-09-17T07:30:26.360Z,99.77
2022-09-17T07:35:26.500Z,99.15
2022-09-17T07:40:26.385Z,97.52
2022-09-17T07:45:26.201Z,97.21
2022-09-17T07:50:26.159Z,96.29
2022-09-17T07:55:26.074Z,95.57
2022-09-17T08:00:26.161Z,94.04
2022-09-17T08:05:25.988Z,93.93
2022-09-17T08:10:25.909Z,94.55
2022-09-17T08:15:25.866Z,94.14
2022-09-17T08:20:25.940Z,95.47
2022-09-17T08:25:25.743Z,95.17
2022-09-17T08:30:25.703Z,94.34
2022-09-17T08:35:25.654Z,94.04
2022-09-17T08:40:25.748Z,94.04
2022-09-17T08:45:25.534Z,93.63
2022-09-17T08:50:25.493Z,92.81
2022-09-17T08:55:25.418Z,94.04
2022-09-17T09:00:25.493Z,94.14
2022-09-17T09:05:25.328Z,94.85
2022-09-17T09:10:25.254Z,95.26
2022-09-17T09:15:25.208Z,94.34
2022-09-17T09:20:25.311Z,94.75
2022-09-17T09:25:25.083Z,94.85
2022-09-17T09:30:25.142Z,96.80
2022-09-17T09:35:24.988Z,95.47
2022-09-17T09:40:25.099Z,96.49
2022-09-17T09:45:24.862Z,94.96
2022-09-17T09:50:24.824Z,95.47
2022-09-17T09:55:26.854Z,94.14
2022-09-17T10:00:24.808Z,95.26
2022-09-17T10:05:24.649Z,95.78
2022-09-17T10:10:24.606Z,92.19
2022-09-17T10:15:24.530Z,92.81
2022-09-17T10:20:24.683Z,93.73
2022-09-17T10:25:24.453Z,95.47
2022-09-17T10:30:24.364Z,95.17
2022-09-17T10:35:24.323Z,94.55
2022-09-17T10:40:24.462Z,94.75
2022-09-17T10:45:24.203Z,93.93
2022-09-17T10:50:24.167Z,94.04
2022-09-17T10:55:24.111Z,92.19
2022-09-17T11:00:24.154Z,90.45
2022-09-17T11:05:23.991Z,88.31
2022-09-17T11:10:23.946Z,89.53
2022-09-17T11:15:23.874Z,88.62
2022-09-17T11:20:23.941Z,90.66
2022-09-17T11:25:23.779Z,93.01
2022-09-17T11:30:23.709Z,95.26
2022-09-17T11:35:23.672Z,94.85
2022-09-17T11:40:23.804Z,94.85
2022-09-17T11:45:23.546Z,95.06
2022-09-17T11:50:23.502Z,94.85
2022-09-17T11:55:23.452Z,93.93
2022-09-17T12:00:23.499Z,94.34
2022-09-17T12:05:23.335Z,93.01
2022-09-17T12:10:23.293Z,95.67
2022-09-17T12:15:23.220Z,93.93
2022-09-17T12:20:23.290Z,94.04
2022-09-17T12:25:23.131Z,94.34
2022-09-17T12:30:23.377Z,94.14
2022-09-17T12:35:23.127Z,94.14
2022-09-17T12:40:23.163Z,94.45
2022-09-17T12:45:22.929Z,95.26
2022-09-17T12:50:22.823Z,94.96
2022-09-17T12:55:22.785Z,94.55
2022-09-17T13:00:22.847Z,97.00
2022-09-17T13:05:22.662Z,98.33
2022-09-17T13:10:22.621Z,98.33
2022-09-17T13:15:22.655Z,97.11
2022-09-17T13:20:22.622Z,95.98
2022-09-17T13:25:22.487Z,94.55
2022-09-17T13:30:22.404Z,94.34
2022-09-17T13:35:22.332Z,93.93
2022-09-17T13:40:22.588Z,93.52
2022-09-17T13:45:22.235Z,93.22
2022-09-17T13:50:22.165Z,92.91
2022-09-17T13:55:22.122Z,92.81
2022-09-17T14:00:22.240Z,93.32
2022-09-17T14:05:21.999Z,92.71
2022-09-17T14:10:21.955Z,94.24
2022-09-17T14:15:21.902Z,96.49
2022-09-17T14:20:21.955Z,99.46
2022-09-17T14:25:21.791Z,95.47
2022-09-17T14:30:21.739Z,94.96
2022-09-17T14:35:21.676Z,96.39
2022-09-17T14:40:21.823Z,99.66
2022-09-17T14:45:21.584Z,99.99
2022-09-17T14:50:21.512Z,99.99
2022-09-17T14:55:21.469Z,99.99
2022-09-17T15:00:21.534Z,99.77
2022-09-17T15:05:21.350Z,99.36
2022-09-17T15:10:21.306Z,97.92
2022-09-17T15:15:21.251Z,97.41
2022-09-17T15:20:21.300Z,98.24
2022-09-17T15:25:21.149Z,97.92
2022-09-17T15:30:21.094Z,97.92
2022-09-17T15:35:21.022Z,97.72
2022-09-17T15:40:21.184Z,97.52
2022-09-17T15:45:20.937Z,98.24
2022-09-17T15:50:20.873Z,99.36
2022-09-17T15:55:20.815Z,98.44
2022-09-17T16:00:20.894Z,98.54
2022-09-17T16:05:20.698Z,98.33
2022-09-17T16:10:20.654Z,98.13
2022-09-17T16:15:20.608Z,99.05
2022-09-17T16:20:27.708Z,99.36
2022-09-17T16:25:20.481Z,99.66
2022-09-17T16:30:20.435Z,99.98
2022-09-17T16:35:20.394Z,99.77
2022-09-17T16:40:20.473Z,99.99
2022-09-17T16:45:20.284Z,99.99
2022-09-17T16:50:20.234Z,99.99
2022-09-17T16:55:20.159Z,99.99
2022-09-17T17:00:20.235Z,99.99
2022-09-17T17:05:20.064Z,99.99
2022-09-17T17:10:19.997Z,99.99
2022-09-17T17:15:19.954Z,99.99
2022-09-17T17:20:20.035Z,99.99
2022-09-17T17:25:19.834Z,99.99
2022-09-17T17:30:19.792Z,99.99
2022-09-17T17:35:19.755Z,99.99
2022-09-17T17:40:19.878Z,99.99
2022-09-17T17:45:19.635Z,99.99
2022-09-17T17:50:19.595Z,99.99
2022-09-17T17:55:19.518Z,99.99
2022-09-17T18:00:19.588Z,99.99
2022-09-17T18:05:19.420Z,99.99
2022-09-17T18:10:19.352Z,99.99
2022-09-17T18:15:19.313Z,99.99
2022-09-17T18:20:19.385Z,99.99
2022-09-17T18:25:19.193Z,99.99
2022-09-17T18:30:19.156Z,99.99
2022-09-17T18:35:19.087Z,99.99
2022-09-17T18:40:19.324Z,99.99
2022-09-17T18:45:18.975Z,99.99
2022-09-17T18:50:18.933Z,99.99
2022-09-17T18:55:18.878Z,99.99
2022-09-17T19:00:18.941Z,99.99
2022-09-17T19:05:18.774Z,99.99
2022-09-17T19:10:18.717Z,99.99
2022-09-17T19:15:18.668Z,99.99
2022-09-17T19:20:18.728Z,99.99
2022-09-17T19:25:18.559Z,99.99
2022-09-17T19:30:18.575Z,99.99
2022-09-17T19:35:18.437Z,99.99
2022-09-17T19:40:18.582Z,99.99
2022-09-17T19:45:18.355Z,99.99
2022-09-17T19:50:18.279Z,99.99
2022-09-17T19:55:18.237Z,99.99
2022-09-17T20:00:18.312Z,99.99
2022-09-17T20:05:18.133Z,99.99
2022-09-17T20:10:18.082Z,99.99
2022-09-17T20:15:18.022Z,99.99
2022-09-17T20:20:18.095Z,99.99
2022-09-17T20:25:17.903Z,99.99
2022-09-17T20:30:17.880Z,99.99
2022-09-17T20:35:17.828Z,99.99
2022-09-17T20:40:17.976Z,99.99
2022-09-17T20:45:17.736Z,99.99
2022-09-17T20:50:17.656Z,99.99
2022-09-17T20:55:17.578Z,99.99
2022-09-17T21:00:17.660Z,99.99
2022-09-17T21:05:17.491Z,99.99
2022-09-17T21:10:17.423Z,99.99
2022-09-17T21:15:17.381Z,99.99
2022-09-17T21:20:17.457Z,99.99
2022-09-17T21:25:17.261Z,99.99
2022-09-17T21:30:17.223Z,99.99
2022-09-17T21:35:17.165Z,99.99
2022-09-17T21:40:17.247Z,99.99
2022-09-17T21:45:17.061Z,99.99
2022-09-17T21:50:17.002Z,99.99
2022-09-17T21:55:16.947Z,99.99
2022-09-17T22:00:21.234Z,99.99
2022-09-17T22:05:17.845Z,99.99
2022-09-17T22:10:16.793Z,99.99
2022-09-17T22:15:16.742Z,99.99
2022-09-17T22:20:23.835Z,99.99
2022-09-17T22:25:16.615Z,99.99
2022-09-17T22:30:16.575Z,99.99
2022-09-17T22:35:16.520Z,99.99
2022-09-17T22:40:16.698Z,99.99
2022-09-17T22:45:16.410Z,99.99
2022-09-17T22:50:16.357Z,99.99
2022-09-17T22:55:16.306Z,99.99
2022-09-17T23:00:16.385Z,99.99
2022-09-17T23:05:16.201Z,99.99
2022-09-17T23:10:16.148Z,99.99
2022-09-17T23:15:16.098Z,99.99
2022-09-17T23:20:16.142Z,99.99
2022-09-17T23:25:16.078Z,99.99
